KCFV/CFV METAR and TAF weather

Enter ICAO airport designator
Station Type Date Time Source
KCFV METAR 2021/03/02 13:52 UTC NOAA

KCFV 021352Z AUTO 18005KT 10SM CLR 01/M03 A3028 RMK AO2 SLP257 T00061028


Station Type Date Time Source
KCFV Decoded METAR 2021/03/02 13:52 UTC NOAA

COFFEYVILLE MUNICIPAL AIRPORT , KS, United States (KCFV) 37-05N 95-34W 225M
Mar 02, 2021 - 08:52 AM EST / 2021.03.02 1352 UTC
Wind: from the S (180 degrees) at 6 MPH (5 KT):0
Visibility: 10 mile(s):0
Sky conditions: clear
Temperature: 33.1 F (0.6 C)
Windchill: 28 F (-2 C):1
Dew Point: 27.0 F (-2.8 C)
Relative Humidity: 77%
Pressure (altimeter): 30.28 in. Hg (1025 hPa)
ob: KCFV 021352Z AUTO 18005KT 10SM CLR 01/M03 A3028 RMK AO2 SLP257 T00061028
cycle: 14

Station Type Date Time Source
KCFV TAF UTC NOAA

Error!

Example: see airport list